createdAt,value
2022-11-04T00:00:43.373Z,9.40
2022-11-04T00:03:13.995Z,9.40
2022-11-04T00:05:45.584Z,9.40
2022-11-04T00:08:26.602Z,9.40
2022-11-04T00:11:13.673Z,9.40
2022-11-04T00:13:42.908Z,9.30
2022-11-04T00:16:29.485Z,9.30
2022-11-04T00:19:01.179Z,9.30
2022-11-04T00:21:47.849Z,9.30
2022-11-04T00:24:34.630Z,9.30
2022-11-04T00:27:21.519Z,9.30
2022-11-04T00:29:50.601Z,9.30
2022-11-04T00:32:37.155Z,9.30
2022-11-04T00:35:08.908Z,9.30
2022-11-04T00:37:39.534Z,9.30
2022-11-04T00:40:10.764Z,9.30
2022-11-04T00:42:39.801Z,9.30
2022-11-04T00:45:09.862Z,9.30
2022-11-04T00:47:39.378Z,9.30
2022-11-04T00:50:10.948Z,9.30
2022-11-04T00:52:40.106Z,9.30
2022-11-04T00:55:10.204Z,9.30
2022-11-04T00:57:39.425Z,9.30
2022-11-04T01:00:09.954Z,9.30
2022-11-04T01:02:39.165Z,9.30
2022-11-04T01:05:11.007Z,9.30
2022-11-04T01:07:43.668Z,9.30
2022-11-04T01:10:13.099Z,9.30
2022-11-04T01:12:42.168Z,9.30
2022-11-04T01:15:12.175Z,9.30
2022-11-04T01:17:41.309Z,9.30
2022-11-04T01:20:14.232Z,9.30
2022-11-04T01:22:43.484Z,9.30
2022-11-04T01:25:12.629Z,9.30
2022-11-04T01:27:41.708Z,9.30
2022-11-04T01:30:12.529Z,9.30
2022-11-04T01:32:41.641Z,9.30
2022-11-04T01:35:12.198Z,9.30
2022-11-04T01:37:41.375Z,9.30
2022-11-04T01:40:11.522Z,9.30
2022-11-04T01:42:40.967Z,9.20
2022-11-04T01:45:15.825Z,9.30
2022-11-04T01:47:50.138Z,9.20
2022-11-04T01:50:25.111Z,9.30
2022-11-04T01:52:57.451Z,9.30
2022-11-04T01:55:30.057Z,9.20
2022-11-04T01:58:02.583Z,9.20
2022-11-04T02:00:32.029Z,9.20
2022-11-04T02:03:05.631Z,9.20
2022-11-04T02:05:36.481Z,9.20
2022-11-04T02:08:07.865Z,9.10
2022-11-04T02:10:37.681Z,9.10
2022-11-04T02:13:06.387Z,9.10
2022-11-04T02:15:44.169Z,9.10
2022-11-04T02:18:39.764Z,9.10
2022-11-04T02:21:44.238Z,9.00
2022-11-04T02:24:44.088Z,9.10
2022-11-04T02:27:26.494Z,9.10
2022-11-04T02:30:06.984Z,9.00
2022-11-04T02:33:11.063Z,9.00
2022-11-04T02:35:51.645Z,9.00
2022-11-04T02:38:31.400Z,9.10
2022-11-04T02:41:07.670Z,9.00
2022-11-04T02:43:43.253Z,9.00
2022-11-04T02:46:21.016Z,9.10
2022-11-04T02:48:55.131Z,9.00
2022-11-04T02:51:28.350Z,9.00
2022-11-04T02:54:05.812Z,9.00
2022-11-04T02:56:40.046Z,9.00
2022-11-04T02:59:13.603Z,9.00
2022-11-04T03:01:47.059Z,9.00
2022-11-04T03:04:18.356Z,9.00
2022-11-04T03:06:50.245Z,9.00
2022-11-04T03:09:22.656Z,9.00
2022-11-04T03:11:57.033Z,9.00
2022-11-04T03:14:32.609Z,9.00
2022-11-04T03:17:07.741Z,9.00
2022-11-04T03:19:42.946Z,8.90
2022-11-04T03:22:14.459Z,9.00
2022-11-04T03:24:48.078Z,9.00
2022-11-04T03:27:26.603Z,9.00
2022-11-04T03:30:01.076Z,9.00
2022-11-04T03:32:42.531Z,9.00
2022-11-04T03:35:11.989Z,9.00
2022-11-04T03:37:40.876Z,9.00
2022-11-04T03:40:11.538Z,9.00
2022-11-04T03:42:46.241Z,9.00
2022-11-04T03:45:15.875Z,9.00
2022-11-04T03:47:46.369Z,9.00
2022-11-04T03:50:21.975Z,9.00
2022-11-04T03:52:50.977Z,9.00
2022-11-04T03:55:20.187Z,9.00
2022-11-04T03:57:57.530Z,9.00
2022-11-04T04:00:30.694Z,9.00
2022-11-04T04:03:10.966Z,9.00
2022-11-04T04:05:44.938Z,9.00
2022-11-04T04:08:21.058Z,9.00
2022-11-04T04:10:59.815Z,9.00
2022-11-04T04:13:40.514Z,9.10
2022-11-04T04:16:13.416Z,9.00
2022-11-04T04:18:52.705Z,9.10
2022-11-04T04:21:30.269Z,9.00
2022-11-04T04:24:19.962Z,9.00
2022-11-04T04:27:08.375Z,9.00
2022-11-04T04:29:39.069Z,9.00
2022-11-04T04:32:08.809Z,9.00
2022-11-04T04:34:39.386Z,9.00
2022-11-04T04:37:11.669Z,9.00
2022-11-04T04:40:03.540Z,9.00
2022-11-04T04:42:51.363Z,9.00
2022-11-04T04:45:24.666Z,8.90
2022-11-04T04:47:54.060Z,8.90
2022-11-04T04:50:27.259Z,8.90
2022-11-04T04:52:59.488Z,9.00
2022-11-04T04:55:28.561Z,8.90
2022-11-04T04:57:57.564Z,8.90
2022-11-04T05:00:26.610Z,8.90
2022-11-04T05:02:55.589Z,8.90
2022-11-04T05:05:27.023Z,8.90
2022-11-04T05:07:56.013Z,8.90
2022-11-04T05:10:25.017Z,8.90
2022-11-04T05:13:11.138Z,9.00
2022-11-04T05:15:40.113Z,8.90
2022-11-04T05:18:09.373Z,8.90
2022-11-04T05:20:40.437Z,8.90
2022-11-04T05:23:12.132Z,8.90
2022-11-04T05:25:41.557Z,8.90
2022-11-04T05:28:10.948Z,8.90
2022-11-04T05:30:40.074Z,8.90
2022-11-04T05:33:09.220Z,8.90
2022-11-04T05:35:39.782Z,8.90
2022-11-04T05:38:08.799Z,8.90
2022-11-04T05:40:38.018Z,8.90
2022-11-04T05:43:08.191Z,8.90
2022-11-04T05:45:37.320Z,8.90
2022-11-04T05:48:07.273Z,8.90
2022-11-04T05:50:36.288Z,8.90
2022-11-04T05:53:06.865Z,8.90
2022-11-04T05:55:36.033Z,8.90
2022-11-04T05:58:05.003Z,8.90
2022-11-04T06:00:34.023Z,8.90
2022-11-04T06:03:03.150Z,8.90
2022-11-04T06:05:32.618Z,8.90
2022-11-04T06:08:01.665Z,8.90
2022-11-04T06:10:32.113Z,8.90
2022-11-04T06:13:01.307Z,8.90
2022-11-04T06:15:30.405Z,8.90
2022-11-04T06:17:59.535Z,8.90
2022-11-04T06:20:28.518Z,8.90
2022-11-04T06:22:57.484Z,8.90
2022-11-04T06:25:26.439Z,8.90
2022-11-04T06:27:56.857Z,8.90
2022-11-04T06:30:25.842Z,8.90
2022-11-04T06:32:54.895Z,8.90
2022-11-04T06:35:23.948Z,8.80
2022-11-04T06:37:53.161Z,8.90
2022-11-04T06:40:22.277Z,8.90
2022-11-04T06:42:51.937Z,8.90
2022-11-04T06:45:22.511Z,8.90
2022-11-04T06:47:51.504Z,8.90
2022-11-04T06:50:20.553Z,8.90
2022-11-04T06:52:49.591Z,8.90
2022-11-04T06:55:18.609Z,8.90
2022-11-04T06:57:47.612Z,8.90
2022-11-04T07:00:17.112Z,8.90
2022-11-04T07:02:47.610Z,9.00
2022-11-04T07:05:17.702Z,8.90
2022-11-04T07:07:46.940Z,8.90
2022-11-04T07:10:17.188Z,8.90
2022-11-04T07:12:46.336Z,9.00
2022-11-04T07:15:15.422Z,9.00
2022-11-04T07:17:44.973Z,9.00
2022-11-04T07:20:15.479Z,9.00
2022-11-04T07:22:44.493Z,9.00
2022-11-04T07:25:14.665Z,9.00
2022-11-04T07:27:43.684Z,9.10
2022-11-04T07:30:13.898Z,9.10
2022-11-04T07:32:42.961Z,9.10
2022-11-04T07:35:12.163Z,9.10
2022-11-04T07:37:42.657Z,9.10
2022-11-04T07:40:12.672Z,9.10
2022-11-04T07:42:47.368Z,9.10
2022-11-04T07:45:19.966Z,9.10
2022-11-04T07:47:49.067Z,9.10
2022-11-04T07:50:18.344Z,9.10
2022-11-04T07:52:50.976Z,9.20
2022-11-04T07:55:21.343Z,9.20
2022-11-04T07:57:50.419Z,9.20
2022-11-04T08:00:20.457Z,9.20
2022-11-04T08:02:49.540Z,9.20
2022-11-04T08:05:18.908Z,9.20
2022-11-04T08:07:49.284Z,9.20
2022-11-04T08:10:18.549Z,9.20
2022-11-04T08:12:48.220Z,9.30
2022-11-04T08:15:17.537Z,9.20
2022-11-04T08:17:46.553Z,9.30
2022-11-04T08:20:15.684Z,9.30
2022-11-04T08:22:44.723Z,9.30
2022-11-04T08:25:15.129Z,9.40
2022-11-04T08:27:44.266Z,9.40
2022-11-04T08:30:14.220Z,9.40
2022-11-04T08:32:44.420Z,9.50
2022-11-04T08:35:13.544Z,9.50
2022-11-04T08:37:42.538Z,9.60
2022-11-04T08:40:12.232Z,9.70
2022-11-04T08:42:42.670Z,9.70
2022-11-04T08:45:11.974Z,9.70
2022-11-04T08:47:43.925Z,9.80
2022-11-04T08:50:12.931Z,9.90
2022-11-04T08:52:41.924Z,9.90
2022-11-04T08:55:11.620Z,10.00
2022-11-04T08:57:42.067Z,10.10
2022-11-04T09:00:12.602Z,10.10
2022-11-04T09:02:41.539Z,10.10
2022-11-04T09:05:10.836Z,10.10
2022-11-04T09:07:39.983Z,10.20
2022-11-04T09:10:10.459Z,10.20
2022-11-04T09:12:39.479Z,10.30
2022-11-04T09:15:10.824Z,10.40
2022-11-04T09:17:40.263Z,10.50
2022-11-04T09:20:10.436Z,10.60
2022-11-04T09:22:43.121Z,10.70
2022-11-04T09:25:14.813Z,10.80
2022-11-04T09:27:44.044Z,10.90
2022-11-04T09:30:18.201Z,10.90
2022-11-04T09:32:52.426Z,10.90
2022-11-04T09:35:21.917Z,11.00
2022-11-04T09:37:51.216Z,11.00
2022-11-04T09:40:23.075Z,11.10
2022-11-04T09:43:15.592Z,11.10
2022-11-04T09:45:46.683Z,11.10
2022-11-04T09:48:26.321Z,11.20
2022-11-04T09:50:58.541Z,11.20
2022-11-04T09:53:35.484Z,11.30
2022-11-04T09:56:08.062Z,11.30
2022-11-04T09:58:40.616Z,11.40
2022-11-04T10:01:23.357Z,11.50
2022-11-04T10:04:07.773Z,11.50
2022-11-04T10:06:46.296Z,11.70
2022-11-04T10:09:31.655Z,11.80
2022-11-04T10:12:12.175Z,11.80
2022-11-04T10:14:58.022Z,11.90
2022-11-04T10:17:47.385Z,12.00
2022-11-04T10:20:26.014Z,12.10
2022-11-04T10:22:59.327Z,12.10
2022-11-04T10:25:37.089Z,12.20
2022-11-04T10:28:10.695Z,12.20
2022-11-04T10:30:43.859Z,12.30
2022-11-04T10:33:22.622Z,12.30
2022-11-04T10:35:57.252Z,12.20
2022-11-04T10:38:35.786Z,12.20
2022-11-04T10:41:13.924Z,12.20
2022-11-04T10:43:43.843Z,12.30
2022-11-04T10:46:28.208Z,12.30
2022-11-04T10:49:04.826Z,12.30
2022-11-04T10:51:33.808Z,12.40
2022-11-04T10:54:07.047Z,12.50
2022-11-04T10:56:41.453Z,12.50
2022-11-04T10:59:23.650Z,12.50
2022-11-04T11:01:54.798Z,12.50
2022-11-04T11:04:31.846Z,12.40
2022-11-04T11:07:03.121Z,12.40
2022-11-04T11:09:34.285Z,12.50
2022-11-04T11:12:29.385Z,12.40
2022-11-04T11:14:56.030Z,12.50
2022-11-04T11:17:27.350Z,12.50
2022-11-04T11:19:59.167Z,12.50
2022-11-04T11:22:32.953Z,12.60
2022-11-04T11:25:22.416Z,12.60
2022-11-04T11:27:54.517Z,12.60
2022-11-04T11:30:27.229Z,12.70
2022-11-04T11:33:00.231Z,12.60
2022-11-04T11:35:41.643Z,12.70
2022-11-04T11:38:23.296Z,12.70
2022-11-04T11:41:23.192Z,12.70
2022-11-04T11:43:47.101Z,12.70
2022-11-04T11:46:23.765Z,12.70
2022-11-04T11:48:57.803Z,12.70
2022-11-04T11:51:32.697Z,12.70
2022-11-04T11:54:33.868Z,12.60
2022-11-04T11:57:14.253Z,12.60
2022-11-04T12:02:51.732Z,12.50
2022-11-04T12:11:46.737Z,12.60
2022-11-04T12:14:22.700Z,12.60
2022-11-04T12:17:00.208Z,12.60
2022-11-04T12:19:57.621Z,12.60
2022-11-04T12:22:34.629Z,12.60
2022-11-04T12:25:15.971Z,12.60
2022-11-04T12:27:50.689Z,12.70
2022-11-04T12:30:29.026Z,12.70
2022-11-04T12:33:18.093Z,12.70
2022-11-04T12:36:07.863Z,12.60
2022-11-04T12:39:11.429Z,12.60
2022-11-04T12:44:49.212Z,12.60
2022-11-04T12:47:30.712Z,12.50
2022-11-04T12:50:05.540Z,12.50
2022-11-04T12:53:01.682Z,12.60
2022-11-04T12:55:43.783Z,12.60
2022-11-04T12:58:31.748Z,12.60
2022-11-04T13:01:05.097Z,12.60
2022-11-04T13:03:39.944Z,12.50
2022-11-04T13:06:14.239Z,12.50
2022-11-04T13:08:51.034Z,12.60
2022-11-04T13:11:23.913Z,12.60
2022-11-04T13:14:02.299Z,12.70
2022-11-04T13:16:35.690Z,12.70
2022-11-04T13:19:06.895Z,12.80
2022-11-04T13:21:39.713Z,12.80
2022-11-04T13:24:21.768Z,12.80
2022-11-04T13:26:52.693Z,12.90
2022-11-04T13:29:25.819Z,12.90
2022-11-04T13:32:03.022Z,12.90
2022-11-04T13:34:41.402Z,12.90
2022-11-04T13:37:18.428Z,12.90
2022-11-04T13:39:52.348Z,12.80
2022-11-04T13:43:20.945Z,12.80
2022-11-04T13:45:54.778Z,12.70
2022-11-04T13:48:27.778Z,12.70
2022-11-04T13:51:00.617Z,12.70
2022-11-04T13:53:47.078Z,12.60
2022-11-04T13:56:35.084Z,12.60
2022-11-04T13:59:09.061Z,12.50
2022-11-04T14:01:39.501Z,12.50
2022-11-04T14:04:27.973Z,12.50
2022-11-04T14:06:59.969Z,12.50
2022-11-04T14:09:54.639Z,12.50
2022-11-04T14:12:41.231Z,12.50
2022-11-04T14:16:02.279Z,12.50
2022-11-04T14:18:34.559Z,12.50
2022-11-04T14:21:09.061Z,12.50
2022-11-04T14:23:40.184Z,12.50
2022-11-04T14:26:11.835Z,12.40
2022-11-04T14:28:45.095Z,12.40
2022-11-04T14:31:17.844Z,12.40
2022-11-04T14:33:56.513Z,12.40
2022-11-04T14:36:38.398Z,12.40
2022-11-04T14:39:22.148Z,12.40
2022-11-04T14:42:01.864Z,12.40
2022-11-04T14:44:33.960Z,12.40
2022-11-04T14:47:17.544Z,12.40
2022-11-04T14:49:50.386Z,12.50
2022-11-04T14:52:27.226Z,12.50
2022-11-04T14:54:59.733Z,12.50
2022-11-04T14:57:31.598Z,12.40
2022-11-04T15:00:00.738Z,12.40
2022-11-04T15:02:33.953Z,12.40
2022-11-04T15:05:04.623Z,12.40
2022-11-04T15:07:36.756Z,12.40
2022-11-04T15:10:21.260Z,12.40
2022-11-04T15:12:54.667Z,12.40
2022-11-04T15:15:35.035Z,12.40
2022-11-04T15:18:08.057Z,12.40
2022-11-04T15:20:46.283Z,12.40
2022-11-04T15:23:18.820Z,12.40
2022-11-04T15:25:49.265Z,12.40
2022-11-04T15:28:22.251Z,12.40
2022-11-04T15:31:16.606Z,12.40
2022-11-04T15:33:48.191Z,12.40
2022-11-04T15:36:22.805Z,12.40
2022-11-04T15:38:55.327Z,12.40
2022-11-04T15:41:43.001Z,12.40
2022-11-04T15:44:21.211Z,12.40
2022-11-04T15:46:52.389Z,12.40
2022-11-04T15:49:25.470Z,12.40
2022-11-04T15:51:59.594Z,12.40
2022-11-04T15:54:31.716Z,12.40
2022-11-04T15:57:03.993Z,12.40
2022-11-04T15:59:36.560Z,12.40
2022-11-04T16:02:16.782Z,12.40
2022-11-04T16:04:49.209Z,12.40
2022-11-04T16:07:25.902Z,12.40
2022-11-04T16:09:56.628Z,12.40
2022-11-04T16:12:31.019Z,12.40
2022-11-04T16:15:03.569Z,12.40
2022-11-04T16:17:33.647Z,12.40
2022-11-04T16:20:06.210Z,12.40
2022-11-04T16:22:40.772Z,12.40
2022-11-04T16:25:20.996Z,12.40
2022-11-04T16:27:50.513Z,12.40
2022-11-04T16:30:21.719Z,12.30
2022-11-04T16:32:54.054Z,12.30
2022-11-04T16:35:25.400Z,12.30
2022-11-04T16:37:57.224Z,12.30
2022-11-04T16:40:26.745Z,12.30
2022-11-04T16:42:56.008Z,12.30
2022-11-04T16:45:28.176Z,12.20
2022-11-04T16:47:57.642Z,12.20
2022-11-04T16:50:27.162Z,12.30
2022-11-04T16:52:57.733Z,12.30
2022-11-04T16:55:27.840Z,12.20
2022-11-04T16:58:00.866Z,12.30
2022-11-04T17:00:33.047Z,12.20
2022-11-04T17:03:05.450Z,12.20
2022-11-04T17:05:34.632Z,12.10
2022-11-04T17:08:06.304Z,12.10
2022-11-04T17:10:36.410Z,12.10
2022-11-04T17:13:06.753Z,12.10
2022-11-04T17:15:35.834Z,12.10
2022-11-04T17:18:05.071Z,12.10
2022-11-04T17:20:34.551Z,12.00
2022-11-04T17:23:05.170Z,12.00
2022-11-04T17:25:34.262Z,12.00
2022-11-04T17:28:03.419Z,12.00
2022-11-04T17:30:34.866Z,12.00
2022-11-04T17:33:06.533Z,12.00
2022-11-04T17:35:38.571Z,12.00
2022-11-04T17:38:11.086Z,12.00
2022-11-04T17:40:54.048Z,11.90
2022-11-04T17:43:40.500Z,12.00
2022-11-04T17:46:26.126Z,12.00
2022-11-04T17:48:55.181Z,11.90
2022-11-04T17:51:24.265Z,11.90
2022-11-04T17:53:54.818Z,11.90
2022-11-04T17:56:25.242Z,11.90
2022-11-04T17:58:54.595Z,11.90
2022-11-04T18:01:24.593Z,11.90
2022-11-04T18:03:54.583Z,11.90
2022-11-04T18:06:24.797Z,11.90
2022-11-04T18:08:56.027Z,11.90
2022-11-04T18:11:44.374Z,11.90
2022-11-04T18:14:16.969Z,11.90
2022-11-04T18:16:48.878Z,11.80
2022-11-04T18:19:19.595Z,11.80
2022-11-04T18:21:50.568Z,11.80
2022-11-04T18:24:21.164Z,11.90
2022-11-04T18:26:50.286Z,11.90
2022-11-04T18:29:19.666Z,11.90
2022-11-04T18:31:49.805Z,11.90
2022-11-04T18:34:20.507Z,11.90
2022-11-04T18:36:50.112Z,11.90
2022-11-04T18:39:20.882Z,11.90
2022-11-04T18:41:50.482Z,11.90
2022-11-04T18:44:21.395Z,11.90
2022-11-04T18:46:51.529Z,11.90
2022-11-04T18:49:21.340Z,11.90
2022-11-04T18:51:50.382Z,11.90
2022-11-04T18:54:21.061Z,11.90
2022-11-04T18:56:50.090Z,11.90
2022-11-04T18:59:19.144Z,11.90
2022-11-04T19:01:50.250Z,11.90
2022-11-04T19:04:19.346Z,11.90
2022-11-04T19:06:48.506Z,11.90
2022-11-04T19:09:45.271Z,11.90
2022-11-04T19:12:26.508Z,11.80
2022-11-04T19:14:55.517Z,11.90
2022-11-04T19:17:25.318Z,11.80
2022-11-04T19:19:54.340Z,11.80
2022-11-04T19:22:23.363Z,11.70
2022-11-04T19:24:52.625Z,11.70
2022-11-04T19:27:25.026Z,11.70
2022-11-04T19:29:54.471Z,11.70
2022-11-04T19:32:23.730Z,11.70
2022-11-04T19:34:54.121Z,11.70
2022-11-04T19:37:23.086Z,11.60
2022-11-04T19:39:52.227Z,11.60
2022-11-04T19:42:40.021Z,11.60
2022-11-04T19:45:10.844Z,11.60
2022-11-04T19:47:39.887Z,11.50
2022-11-04T19:50:09.552Z,11.50
2022-11-04T19:52:38.661Z,11.50
2022-11-04T19:55:08.787Z,11.50
2022-11-04T19:57:39.513Z,11.50
2022-11-04T20:00:10.332Z,11.50
2022-11-04T20:02:43.230Z,11.50
2022-11-04T20:05:12.445Z,11.50
2022-11-04T20:07:41.596Z,11.50
2022-11-04T20:10:11.222Z,11.50
2022-11-04T20:12:58.867Z,11.50
2022-11-04T20:15:28.852Z,11.50
2022-11-04T20:17:57.993Z,11.50
2022-11-04T20:20:27.195Z,11.50
2022-11-04T20:22:56.296Z,11.50
2022-11-04T20:25:25.378Z,11.50
2022-11-04T20:27:55.798Z,11.50
2022-11-04T20:30:25.166Z,11.50
2022-11-04T20:32:54.161Z,11.50
2022-11-04T20:35:23.445Z,11.60
2022-11-04T20:37:52.519Z,11.60
2022-11-04T20:40:21.847Z,11.60
2022-11-04T20:42:51.091Z,11.60
2022-11-04T20:45:21.923Z,11.60
2022-11-04T20:47:53.012Z,11.60
2022-11-04T20:50:22.113Z,11.60
2022-11-04T20:52:51.592Z,11.60
2022-11-04T20:55:20.663Z,11.60
2022-11-04T20:57:49.909Z,11.60
2022-11-04T21:00:19.747Z,11.60
2022-11-04T21:02:50.594Z,11.60
2022-11-04T21:05:21.032Z,11.60
2022-11-04T21:07:50.232Z,11.60
2022-11-04T21:10:19.784Z,11.50
2022-11-04T21:12:49.194Z,11.60
2022-11-04T21:15:33.975Z,11.60
2022-11-04T21:18:04.639Z,11.60
2022-11-04T21:20:37.713Z,11.60
2022-11-04T21:23:07.373Z,11.60
2022-11-04T21:25:44.456Z,11.60
2022-11-04T21:28:14.780Z,11.60
2022-11-04T21:30:47.809Z,11.60
2022-11-04T21:33:18.913Z,11.60
2022-11-04T21:35:48.868Z,11.60
2022-11-04T21:38:19.473Z,11.60
2022-11-04T21:40:51.779Z,11.60
2022-11-04T21:43:21.126Z,11.50
2022-11-04T21:45:50.136Z,11.60
2022-11-04T21:48:21.255Z,11.60
2022-11-04T21:50:50.633Z,11.70
2022-11-04T21:53:19.794Z,11.70
2022-11-04T21:55:49.034Z,11.70
2022-11-04T21:58:18.535Z,11.70
2022-11-04T22:00:47.999Z,11.80
2022-11-04T22:03:17.268Z,11.80
2022-11-04T22:05:57.003Z,11.80
2022-11-04T22:08:26.861Z,11.80
2022-11-04T22:10:56.823Z,11.80
2022-11-04T22:13:27.158Z,11.80
2022-11-04T22:16:03.550Z,11.80
2022-11-04T22:18:36.580Z,11.80
2022-11-04T22:21:10.426Z,11.90
2022-11-04T22:23:39.951Z,11.90
2022-11-04T22:26:11.600Z,11.90
2022-11-04T22:28:40.884Z,11.90
2022-11-04T22:31:11.981Z,11.80
2022-11-04T22:33:41.328Z,11.90
2022-11-04T22:36:13.182Z,11.80
2022-11-04T22:38:44.233Z,11.80
2022-11-04T22:41:16.456Z,11.80
2022-11-04T22:43:45.537Z,11.80
2022-11-04T22:46:16.447Z,11.80
2022-11-04T22:48:45.596Z,11.80
2022-11-04T22:51:16.575Z,11.80
2022-11-04T22:53:50.081Z,11.80
2022-11-04T22:56:23.256Z,11.70
2022-11-04T22:58:54.383Z,11.70
2022-11-04T23:01:24.407Z,11.70
2022-11-04T23:03:53.769Z,11.70
2022-11-04T23:06:25.099Z,11.70
2022-11-04T23:08:59.649Z,11.60
2022-11-04T23:11:47.871Z,11.60
2022-11-04T23:14:36.576Z,11.60
2022-11-04T23:17:32.057Z,11.60
2022-11-04T23:20:01.164Z,11.60
2022-11-04T23:22:49.421Z,11.50
2022-11-04T23:25:18.781Z,11.50
2022-11-04T23:28:08.390Z,11.50
2022-11-04T23:30:39.988Z,11.50
2022-11-04T23:33:11.916Z,11.50
2022-11-04T23:36:00.407Z,11.50
2022-11-04T23:38:31.461Z,11.50
2022-11-04T23:41:20.327Z,11.50
2022-11-04T23:43:49.510Z,11.50
2022-11-04T23:46:42.188Z,11.50
2022-11-04T23:49:29.470Z,11.50
2022-11-04T23:52:15.941Z,11.50
2022-11-04T23:55:03.761Z,11.50
2022-11-04T23:57:49.965Z,11.50
